sensor_id;sensor_type;location;lat;lon;timestamp;P1;durP1;ratioP1;P2;durP2;ratioP2
57822;SDS011;43650;48.064;20.624;2022-12-24T00:00:45;25.63;;;12.37;;
57822;SDS011;43650;48.064;20.624;2022-12-24T00:01:45;33.53;;;14.53;;
57822;SDS011;43650;48.064;20.624;2022-12-24T00:02:45;11.40;;;6.60;;
57822;SDS011;43650;48.064;20.624;2022-12-24T00:03:46;71.07;;;23.40;;
57822;SDS011;43650;48.064;20.624;2022-12-24T00:04:46;65.87;;;20.77;;
57822;SDS011;43650;48.064;20.624;2022-12-24T00:05:47;39.10;;;13.93;;
57822;SDS011;43650;48.064;20.624;2022-12-24T00:06:47;87.27;;;26.03;;
57822;SDS011;43650;48.064;20.624;2022-12-24T00:07:47;44.27;;;15.23;;
57822;SDS011;43650;48.064;20.624;2022-12-24T00:08:48;28.13;;;11.20;;
57822;SDS011;43650;48.064;20.624;2022-12-24T00:09:50;11.85;;;5.30;;
57822;SDS011;43650;48.064;20.624;2022-12-24T00:10:51;25.57;;;11.57;;
57822;SDS011;43650;48.064;20.624;2022-12-24T00:11:51;28.27;;;12.15;;
57822;SDS011;43650;48.064;20.624;2022-12-24T00:12:52;17.70;;;10.57;;
57822;SDS011;43650;48.064;20.624;2022-12-24T00:13:52;11.87;;;7.50;;
57822;SDS011;43650;48.064;20.624;2022-12-24T00:14:52;16.80;;;7.47;;
57822;SDS011;43650;48.064;20.624;2022-12-24T00:15:53;35.20;;;13.67;;
57822;SDS011;43650;48.064;20.624;2022-12-24T00:16:53;30.80;;;12.13;;
57822;SDS011;43650;48.064;20.624;2022-12-24T00:17:54;35.60;;;12.83;;
57822;SDS011;43650;48.064;20.624;2022-12-24T00:18:54;171.87;;;55.70;;
57822;SDS011;43650;48.064;20.624;2022-12-24T00:19:55;56.33;;;23.40;;
57822;SDS011;43650;48.064;20.624;2022-12-24T00:20:55;19.70;;;10.30;;
57822;SDS011;43650;48.064;20.624;2022-12-24T00:21:55;17.17;;;8.57;;
57822;SDS011;43650;48.064;20.624;2022-12-24T00:22:56;22.70;;;11.20;;
57822;SDS011;43650;48.064;20.624;2022-12-24T00:23:56;17.93;;;8.60;;
57822;SDS011;43650;48.064;20.624;2022-12-24T00:24:57;16.97;;;8.43;;
57822;SDS011;43650;48.064;20.624;2022-12-24T00:25:57;19.10;;;8.27;;
57822;SDS011;43650;48.064;20.624;2022-12-24T00:26:57;19.93;;;8.37;;
57822;SDS011;43650;48.064;20.624;2022-12-24T00:27:58;22.43;;;9.83;;
57822;SDS011;43650;48.064;20.624;2022-12-24T00:28:58;35.70;;;15.17;;
57822;SDS011;43650;48.064;20.624;2022-12-24T00:29:59;20.47;;;9.73;;
57822;SDS011;43650;48.064;20.624;2022-12-24T00:30:59;17.73;;;7.60;;
57822;SDS011;43650;48.064;20.624;2022-12-24T00:32:06;17.05;;;9.40;;
57822;SDS011;43650;48.064;20.624;2022-12-24T00:33:09;9.38;;;5.37;;
57822;SDS011;43650;48.064;20.624;2022-12-24T00:34:09;8.38;;;5.62;;
57822;SDS011;43650;48.064;20.624;2022-12-24T00:35:10;13.83;;;6.93;;
57822;SDS011;43650;48.064;20.624;2022-12-24T00:36:10;11.83;;;6.73;;
57822;SDS011;43650;48.064;20.624;2022-12-24T00:37:11;9.80;;;6.03;;
57822;SDS011;43650;48.064;20.624;2022-12-24T00:38:11;17.40;;;8.60;;
57822;SDS011;43650;48.064;20.624;2022-12-24T00:39:11;16.67;;;9.30;;
57822;SDS011;43650;48.064;20.624;2022-12-24T00:40:12;12.03;;;6.77;;
57822;SDS011;43650;48.064;20.624;2022-12-24T00:41:12;11.82;;;6.57;;
57822;SDS011;43650;48.064;20.624;2022-12-24T00:42:27;15.55;;;7.82;;
57822;SDS011;43650;48.064;20.624;2022-12-24T00:43:28;15.30;;;7.47;;
57822;SDS011;43650;48.064;20.624;2022-12-24T00:44:29;10.80;;;6.87;;
57822;SDS011;43650;48.064;20.624;2022-12-24T00:45:29;15.43;;;8.73;;
57822;SDS011;43650;48.064;20.624;2022-12-24T00:46:30;16.30;;;5.97;;
57822;SDS011;43650;48.064;20.624;2022-12-24T00:47:31;11.18;;;6.22;;
57822;SDS011;43650;48.064;20.624;2022-12-24T00:48:32;13.57;;;8.60;;
57822;SDS011;43650;48.064;20.624;2022-12-24T00:49:32;19.33;;;10.30;;
57822;SDS011;43650;48.064;20.624;2022-12-24T00:50:32;18.17;;;9.83;;
57822;SDS011;43650;48.064;20.624;2022-12-24T00:51:33;16.67;;;7.97;;
57822;SDS011;43650;48.064;20.624;2022-12-24T00:52:34;14.07;;;7.87;;
57822;SDS011;43650;48.064;20.624;2022-12-24T00:53:35;17.12;;;9.82;;
57822;SDS011;43650;48.064;20.624;2022-12-24T00:54:35;16.63;;;9.17;;
57822;SDS011;43650;48.064;20.624;2022-12-24T00:55:36;16.50;;;8.93;;
57822;SDS011;43650;48.064;20.624;2022-12-24T00:56:36;17.80;;;9.80;;
57822;SDS011;43650;48.064;20.624;2022-12-24T00:57:37;19.80;;;10.77;;
57822;SDS011;43650;48.064;20.624;2022-12-24T00:58:37;15.90;;;9.37;;
57822;SDS011;43650;48.064;20.624;2022-12-24T00:59:37;14.50;;;7.80;;
57822;SDS011;43650;48.064;20.624;2022-12-24T01:00:38;13.57;;;7.73;;
57822;SDS011;43650;48.064;20.624;2022-12-24T01:01:38;14.73;;;7.77;;
57822;SDS011;43650;48.064;20.624;2022-12-24T01:02:39;14.90;;;7.67;;
57822;SDS011;43650;48.064;20.624;2022-12-24T01:03:39;12.00;;;6.57;;
57822;SDS011;43650;48.064;20.624;2022-12-24T01:04:39;14.33;;;7.03;;
57822;SDS011;43650;48.064;20.624;2022-12-24T01:05:58;9.57;;;5.60;;
57822;SDS011;43650;48.064;20.624;2022-12-24T01:06:59;10.00;;;5.67;;
57822;SDS011;43650;48.064;20.624;2022-12-24T01:07:59;11.63;;;5.67;;
57822;SDS011;43650;48.064;20.624;2022-12-24T01:09:00;9.20;;;5.43;;
57822;SDS011;43650;48.064;20.624;2022-12-24T01:10:00;10.53;;;6.87;;
57822;SDS011;43650;48.064;20.624;2022-12-24T01:11:01;7.30;;;4.47;;
57822;SDS011;43650;48.064;20.624;2022-12-24T01:12:02;9.38;;;4.47;;
57822;SDS011;43650;48.064;20.624;2022-12-24T01:13:03;9.18;;;4.85;;
57822;SDS011;43650;48.064;20.624;2022-12-24T01:14:03;12.60;;;6.23;;
57822;SDS011;43650;48.064;20.624;2022-12-24T01:15:04;11.07;;;7.13;;
57822;SDS011;43650;48.064;20.624;2022-12-24T01:16:12;12.70;;;7.53;;
57822;SDS011;43650;48.064;20.624;2022-12-24T01:17:14;8.90;;;5.05;;
57822;SDS011;43650;48.064;20.624;2022-12-24T01:18:14;9.20;;;5.87;;
57822;SDS011;43650;48.064;20.624;2022-12-24T01:19:15;6.85;;;4.68;;
57822;SDS011;43650;48.064;20.624;2022-12-24T01:20:15;12.57;;;5.97;;
57822;SDS011;43650;48.064;20.624;2022-12-24T01:21:16;9.40;;;5.12;;
57822;SDS011;43650;48.064;20.624;2022-12-24T01:22:16;7.67;;;4.43;;
57822;SDS011;43650;48.064;20.624;2022-12-24T01:23:17;9.60;;;5.30;;
57822;SDS011;43650;48.064;20.624;2022-12-24T01:24:17;7.30;;;4.53;;
57822;SDS011;43650;48.064;20.624;2022-12-24T01:25:18;7.63;;;5.07;;
57822;SDS011;43650;48.064;20.624;2022-12-24T01:26:18;9.60;;;5.40;;
57822;SDS011;43650;48.064;20.624;2022-12-24T01:27:19;16.00;;;6.27;;
57822;SDS011;43650;48.064;20.624;2022-12-24T01:28:19;9.67;;;5.70;;
57822;SDS011;43650;48.064;20.624;2022-12-24T01:29:20;13.82;;;5.70;;
57822;SDS011;43650;48.064;20.624;2022-12-24T01:30:20;14.20;;;6.10;;
57822;SDS011;43650;48.064;20.624;2022-12-24T01:31:21;13.53;;;6.50;;
57822;SDS011;43650;48.064;20.624;2022-12-24T01:32:22;15.47;;;7.47;;
57822;SDS011;43650;48.064;20.624;2022-12-24T01:33:22;13.40;;;6.60;;
57822;SDS011;43650;48.064;20.624;2022-12-24T01:34:22;11.97;;;7.97;;
57822;SDS011;43650;48.064;20.624;2022-12-24T01:35:23;15.30;;;7.80;;
57822;SDS011;43650;48.064;20.624;2022-12-24T01:36:23;18.17;;;7.73;;
57822;SDS011;43650;48.064;20.624;2022-12-24T01:37:24;12.43;;;7.17;;
57822;SDS011;43650;48.064;20.624;2022-12-24T01:38:24;13.53;;;6.83;;
57822;SDS011;43650;48.064;20.624;2022-12-24T01:39:24;14.33;;;7.27;;
57822;SDS011;43650;48.064;20.624;2022-12-24T01:40:25;10.27;;;7.07;;
57822;SDS011;43650;48.064;20.624;2022-12-24T01:41:44;12.80;;;6.95;;
57822;SDS011;43650;48.064;20.624;2022-12-24T01:43:04;19.27;;;8.15;;
57822;SDS011;43650;48.064;20.624;2022-12-24T01:44:27;14.73;;;8.23;;
57822;SDS011;43650;48.064;20.624;2022-12-24T01:45:40;16.80;;;7.90;;
57822;SDS011;43650;48.064;20.624;2022-12-24T01:46:47;12.40;;;6.57;;
57822;SDS011;43650;48.064;20.624;2022-12-24T01:47:49;14.23;;;7.47;;
57822;SDS011;43650;48.064;20.624;2022-12-24T01:48:53;16.00;;;8.83;;
57822;SDS011;43650;48.064;20.624;2022-12-24T01:49:56;15.43;;;8.18;;
57822;SDS011;43650;48.064;20.624;2022-12-24T01:51:00;11.00;;;6.57;;
57822;SDS011;43650;48.064;20.624;2022-12-24T01:52:16;15.25;;;8.15;;
57822;SDS011;43650;48.064;20.624;2022-12-24T01:53:18;15.13;;;7.68;;
57822;SDS011;43650;48.064;20.624;2022-12-24T01:54:23;18.30;;;8.70;;
57822;SDS011;43650;48.064;20.624;2022-12-24T01:55:28;16.15;;;8.10;;
57822;SDS011;43650;48.064;20.624;2022-12-24T01:56:29;16.53;;;9.50;;
57822;SDS011;43650;48.064;20.624;2022-12-24T01:57:33;21.95;;;11.15;;
57822;SDS011;43650;48.064;20.624;2022-12-24T01:58:37;21.02;;;9.35;;
57822;SDS011;43650;48.064;20.624;2022-12-24T01:59:39;20.65;;;10.52;;
57822;SDS011;43650;48.064;20.624;2022-12-24T02:00:42;19.90;;;8.98;;
57822;SDS011;43650;48.064;20.624;2022-12-24T02:01:43;21.83;;;10.55;;
57822;SDS011;43650;48.064;20.624;2022-12-24T02:02:45;18.33;;;10.07;;
57822;SDS011;43650;48.064;20.624;2022-12-24T02:03:47;20.42;;;10.48;;
57822;SDS011;43650;48.064;20.624;2022-12-24T02:04:56;19.67;;;10.73;;
57822;SDS011;43650;48.064;20.624;2022-12-24T02:06:01;22.23;;;12.13;;
57822;SDS011;43650;48.064;20.624;2022-12-24T02:07:01;22.87;;;10.18;;
57822;SDS011;43650;48.064;20.624;2022-12-24T02:08:03;26.33;;;12.80;;
57822;SDS011;43650;48.064;20.624;2022-12-24T02:09:04;24.63;;;11.48;;
57822;SDS011;43650;48.064;20.624;2022-12-24T02:10:08;22.65;;;11.70;;
57822;SDS011;43650;48.064;20.624;2022-12-24T02:12:14;27.37;;;11.73;;
57822;SDS011;43650;48.064;20.624;2022-12-24T02:13:16;22.00;;;11.10;;
57822;SDS011;43650;48.064;20.624;2022-12-24T02:14:18;27.77;;;12.20;;
57822;SDS011;43650;48.064;20.624;2022-12-24T02:15:19;27.63;;;11.27;;
57822;SDS011;43650;48.064;20.624;2022-12-24T02:17:44;31.42;;;12.75;;
57822;SDS011;43650;48.064;20.624;2022-12-24T02:19:03;31.52;;;12.43;;
57822;SDS011;43650;48.064;20.624;2022-12-24T02:22:26;32.63;;;11.40;;
57822;SDS011;43650;48.064;20.624;2022-12-24T02:27:18;30.58;;;11.88;;
57822;SDS011;43650;48.064;20.624;2022-12-24T02:28:35;26.27;;;12.73;;
57822;SDS011;43650;48.064;20.624;2022-12-24T02:31:05;30.77;;;12.45;;
57822;SDS011;43650;48.064;20.624;2022-12-24T02:32:12;50.50;;;15.82;;
57822;SDS011;43650;48.064;20.624;2022-12-24T02:36:26;64.57;;;19.00;;
57822;SDS011;43650;48.064;20.624;2022-12-24T02:37:32;42.05;;;14.30;;
57822;SDS011;43650;48.064;20.624;2022-12-24T02:38:44;34.20;;;13.23;;
57822;SDS011;43650;48.064;20.624;2022-12-24T02:39:56;32.67;;;12.45;;
57822;SDS011;43650;48.064;20.624;2022-12-24T02:41:01;27.30;;;12.88;;
57822;SDS011;43650;48.064;20.624;2022-12-24T02:42:05;143.87;;;17.85;;
57822;SDS011;43650;48.064;20.624;2022-12-24T02:43:09;91.25;;;16.80;;
57822;SDS011;43650;48.064;20.624;2022-12-24T02:44:10;88.18;;;15.18;;
57822;SDS011;43650;48.064;20.624;2022-12-24T02:45:15;62.07;;;15.50;;
57822;SDS011;43650;48.064;20.624;2022-12-24T02:46:24;78.28;;;16.02;;
57822;SDS011;43650;48.064;20.624;2022-12-24T02:47:27;38.40;;;15.20;;
57822;SDS011;43650;48.064;20.624;2022-12-24T02:49:29;116.47;;;16.77;;
57822;SDS011;43650;48.064;20.624;2022-12-24T02:50:29;56.60;;;15.83;;
57822;SDS011;43650;48.064;20.624;2022-12-24T02:51:30;49.70;;;15.07;;
57822;SDS011;43650;48.064;20.624;2022-12-24T02:52:31;221.73;;;24.30;;
57822;SDS011;43650;48.064;20.624;2022-12-24T02:53:33;114.18;;;15.27;;
57822;SDS011;43650;48.064;20.624;2022-12-24T02:54:34;261.73;;;24.55;;
57822;SDS011;43650;48.064;20.624;2022-12-24T02:56:42;165.05;;;17.42;;
57822;SDS011;43650;48.064;20.624;2022-12-24T02:57:57;111.12;;;16.00;;
57822;SDS011;43650;48.064;20.624;2022-12-24T02:59:12;31.12;;;11.10;;
57822;SDS011;43650;48.064;20.624;2022-12-24T03:00:24;114.62;;;15.38;;
57822;SDS011;43650;48.064;20.624;2022-12-24T03:03:47;106.53;;;15.40;;
57822;SDS011;43650;48.064;20.624;2022-12-24T03:08:20;81.07;;;13.02;;
57822;SDS011;43650;48.064;20.624;2022-12-24T03:10:58;102.25;;;12.82;;
57822;SDS011;43650;48.064;20.624;2022-12-24T03:12:12;172.75;;;17.33;;
57822;SDS011;43650;48.064;20.624;2022-12-24T03:13:16;69.28;;;15.05;;
57822;SDS011;43650;48.064;20.624;2022-12-24T03:14:17;87.78;;;13.52;;
57822;SDS011;43650;48.064;20.624;2022-12-24T03:15:19;108.70;;;15.80;;
57822;SDS011;43650;48.064;20.624;2022-12-24T03:16:22;125.25;;;16.60;;
57822;SDS011;43650;48.064;20.624;2022-12-24T03:17:24;77.85;;;14.87;;
57822;SDS011;43650;48.064;20.624;2022-12-24T03:18:25;131.50;;;16.13;;
57822;SDS011;43650;48.064;20.624;2022-12-24T03:19:27;106.07;;;18.10;;
57822;SDS011;43650;48.064;20.624;2022-12-24T03:20:34;108.30;;;17.45;;
57822;SDS011;43650;48.064;20.624;2022-12-24T03:21:39;81.43;;;13.80;;
57822;SDS011;43650;48.064;20.624;2022-12-24T03:22:41;85.25;;;13.62;;
57822;SDS011;43650;48.064;20.624;2022-12-24T03:23:42;37.87;;;12.30;;
57822;SDS011;43650;48.064;20.624;2022-12-24T03:24:42;96.70;;;14.80;;
57822;SDS011;43650;48.064;20.624;2022-12-24T03:25:43;133.80;;;23.87;;
57822;SDS011;43650;48.064;20.624;2022-12-24T03:26:44;87.75;;;16.48;;
57822;SDS011;43650;48.064;20.624;2022-12-24T03:27:45;111.70;;;14.43;;
57822;SDS011;43650;48.064;20.624;2022-12-24T03:28:46;67.40;;;12.50;;
57822;SDS011;43650;48.064;20.624;2022-12-24T03:29:47;54.90;;;10.75;;
57822;SDS011;43650;48.064;20.624;2022-12-24T03:30:47;52.83;;;12.73;;
57822;SDS011;43650;48.064;20.624;2022-12-24T03:31:49;50.97;;;13.30;;
57822;SDS011;43650;48.064;20.624;2022-12-24T03:32:51;40.60;;;12.35;;
57822;SDS011;43650;48.064;20.624;2022-12-24T03:33:51;26.17;;;10.57;;
57822;SDS011;43650;48.064;20.624;2022-12-24T03:34:52;54.13;;;14.80;;
57822;SDS011;43650;48.064;20.624;2022-12-24T03:35:52;30.05;;;8.40;;
57822;SDS011;43650;48.064;20.624;2022-12-24T03:36:53;34.73;;;8.83;;
57822;SDS011;43650;48.064;20.624;2022-12-24T03:37:53;39.93;;;9.77;;
57822;SDS011;43650;48.064;20.624;2022-12-24T03:38:54;27.80;;;10.90;;
57822;SDS011;43650;48.064;20.624;2022-12-24T03:39:54;28.33;;;8.37;;
57822;SDS011;43650;48.064;20.624;2022-12-24T03:40:54;33.17;;;10.90;;
57822;SDS011;43650;48.064;20.624;2022-12-24T03:41:55;38.33;;;9.05;;
57822;SDS011;43650;48.064;20.624;2022-12-24T03:42:56;32.27;;;10.73;;
57822;SDS011;43650;48.064;20.624;2022-12-24T03:43:56;39.17;;;8.50;;
57822;SDS011;43650;48.064;20.624;2022-12-24T03:44:56;42.77;;;11.53;;
57822;SDS011;43650;48.064;20.624;2022-12-24T03:45:57;38.93;;;11.40;;
57822;SDS011;43650;48.064;20.624;2022-12-24T03:46:57;30.83;;;10.27;;
57822;SDS011;43650;48.064;20.624;2022-12-24T03:47:58;31.13;;;10.10;;
57822;SDS011;43650;48.064;20.624;2022-12-24T03:48:58;34.93;;;9.50;;
57822;SDS011;43650;48.064;20.624;2022-12-24T03:49:58;49.37;;;10.67;;
57822;SDS011;43650;48.064;20.624;2022-12-24T03:50:59;52.23;;;9.73;;
57822;SDS011;43650;48.064;20.624;2022-12-24T03:52:00;41.67;;;9.32;;
57822;SDS011;43650;48.064;20.624;2022-12-24T03:53:00;62.53;;;11.87;;
57822;SDS011;43650;48.064;20.624;2022-12-24T03:54:01;72.53;;;12.30;;
57822;SDS011;43650;48.064;20.624;2022-12-24T03:55:02;56.77;;;11.53;;
57822;SDS011;43650;48.064;20.624;2022-12-24T03:56:02;72.70;;;13.60;;
57822;SDS011;43650;48.064;20.624;2022-12-24T03:57:03;39.83;;;12.03;;
57822;SDS011;43650;48.064;20.624;2022-12-24T03:58:03;66.67;;;12.90;;
57822;SDS011;43650;48.064;20.624;2022-12-24T03:59:04;78.40;;;12.60;;
57822;SDS011;43650;48.064;20.624;2022-12-24T04:00:05;43.13;;;10.13;;
57822;SDS011;43650;48.064;20.624;2022-12-24T04:02:06;83.20;;;11.95;;
57822;SDS011;43650;48.064;20.624;2022-12-24T04:03:06;29.70;;;9.17;;
57822;SDS011;43650;48.064;20.624;2022-12-24T04:04:07;26.37;;;9.30;;
57822;SDS011;43650;48.064;20.624;2022-12-24T04:05:08;15.50;;;7.93;;
57822;SDS011;43650;48.064;20.624;2022-12-24T04:06:14;69.93;;;10.00;;
57822;SDS011;43650;48.064;20.624;2022-12-24T04:07:16;51.75;;;10.30;;
57822;SDS011;43650;48.064;20.624;2022-12-24T04:08:17;69.37;;;10.83;;
57822;SDS011;43650;48.064;20.624;2022-12-24T04:09:17;28.73;;;9.67;;
57822;SDS011;43650;48.064;20.624;2022-12-24T04:10:18;94.80;;;13.47;;
57822;SDS011;43650;48.064;20.624;2022-12-24T04:11:18;37.30;;;11.93;;
57822;SDS011;43650;48.064;20.624;2022-12-24T04:12:18;43.03;;;11.93;;
57822;SDS011;43650;48.064;20.624;2022-12-24T04:13:19;78.17;;;13.03;;
57822;SDS011;43650;48.064;20.624;2022-12-24T04:14:19;64.53;;;11.30;;
57822;SDS011;43650;48.064;20.624;2022-12-24T04:15:20;64.33;;;13.40;;
57822;SDS011;43650;48.064;20.624;2022-12-24T04:16:20;56.93;;;12.23;;
57822;SDS011;43650;48.064;20.624;2022-12-24T04:17:21;45.90;;;12.07;;
57822;SDS011;43650;48.064;20.624;2022-12-24T04:18:21;33.87;;;10.43;;
57822;SDS011;43650;48.064;20.624;2022-12-24T04:19:21;32.33;;;11.53;;
57822;SDS011;43650;48.064;20.624;2022-12-24T04:20:22;69.93;;;11.80;;
57822;SDS011;43650;48.064;20.624;2022-12-24T04:21:22;41.00;;;10.63;;
57822;SDS011;43650;48.064;20.624;2022-12-24T04:22:23;55.30;;;10.30;;
57822;SDS011;43650;48.064;20.624;2022-12-24T04:23:23;47.10;;;10.87;;
57822;SDS011;43650;48.064;20.624;2022-12-24T04:24:24;39.30;;;11.43;;
57822;SDS011;43650;48.064;20.624;2022-12-24T04:25:24;105.37;;;13.97;;
57822;SDS011;43650;48.064;20.624;2022-12-24T04:26:25;27.33;;;10.07;;
57822;SDS011;43650;48.064;20.624;2022-12-24T04:27:25;45.17;;;10.00;;
57822;SDS011;43650;48.064;20.624;2022-12-24T04:28:25;49.67;;;15.07;;
57822;SDS011;43650;48.064;20.624;2022-12-24T04:29:27;26.58;;;10.68;;
57822;SDS011;43650;48.064;20.624;2022-12-24T04:30:28;60.97;;;12.97;;
57822;SDS011;43650;48.064;20.624;2022-12-24T04:31:28;38.60;;;15.17;;
57822;SDS011;43650;48.064;20.624;2022-12-24T04:32:29;75.90;;;18.17;;
57822;SDS011;43650;48.064;20.624;2022-12-24T04:33:29;32.10;;;10.83;;
57822;SDS011;43650;48.064;20.624;2022-12-24T04:34:29;33.37;;;11.37;;
57822;SDS011;43650;48.064;20.624;2022-12-24T04:35:30;32.27;;;11.00;;
57822;SDS011;43650;48.064;20.624;2022-12-24T04:36:30;22.10;;;9.30;;
57822;SDS011;43650;48.064;20.624;2022-12-24T04:37:32;34.87;;;9.90;;
57822;SDS011;43650;48.064;20.624;2022-12-24T04:38:33;25.98;;;9.60;;
57822;SDS011;43650;48.064;20.624;2022-12-24T04:39:33;23.90;;;8.35;;
57822;SDS011;43650;48.064;20.624;2022-12-24T04:40:34;31.07;;;10.47;;
57822;SDS011;43650;48.064;20.624;2022-12-24T04:41:35;26.12;;;11.35;;
57822;SDS011;43650;48.064;20.624;2022-12-24T04:42:35;23.30;;;10.50;;
57822;SDS011;43650;48.064;20.624;2022-12-24T04:43:36;25.63;;;11.00;;
57822;SDS011;43650;48.064;20.624;2022-12-24T04:44:36;30.07;;;10.53;;
57822;SDS011;43650;48.064;20.624;2022-12-24T04:45:36;29.40;;;11.80;;
57822;SDS011;43650;48.064;20.624;2022-12-24T04:46:37;25.07;;;12.37;;
57822;SDS011;43650;48.064;20.624;2022-12-24T04:47:37;69.27;;;14.07;;
57822;SDS011;43650;48.064;20.624;2022-12-24T04:48:38;54.50;;;12.10;;
57822;SDS011;43650;48.064;20.624;2022-12-24T04:49:38;24.90;;;9.37;;
57822;SDS011;43650;48.064;20.624;2022-12-24T04:50:39;33.23;;;10.27;;
57822;SDS011;43650;48.064;20.624;2022-12-24T04:51:40;24.25;;;9.98;;
57822;SDS011;43650;48.064;20.624;2022-12-24T04:52:40;24.47;;;9.37;;
57822;SDS011;43650;48.064;20.624;2022-12-24T04:53:41;34.17;;;11.97;;
57822;SDS011;43650;48.064;20.624;2022-12-24T04:54:42;21.75;;;9.00;;
57822;SDS011;43650;48.064;20.624;2022-12-24T04:55:44;22.90;;;10.68;;
57822;SDS011;43650;48.064;20.624;2022-12-24T04:56:45;19.92;;;9.15;;
57822;SDS011;43650;48.064;20.624;2022-12-24T04:57:45;21.87;;;9.68;;
57822;SDS011;43650;48.064;20.624;2022-12-24T04:58:46;16.20;;;9.13;;
57822;SDS011;43650;48.064;20.624;2022-12-24T04:59:47;17.37;;;9.75;;
57822;SDS011;43650;48.064;20.624;2022-12-24T05:00:48;21.83;;;9.80;;
57822;SDS011;43650;48.064;20.624;2022-12-24T05:01:48;15.00;;;8.17;;
57822;SDS011;43650;48.064;20.624;2022-12-24T05:02:49;19.40;;;9.37;;
57822;SDS011;43650;48.064;20.624;2022-12-24T05:03:49;15.47;;;8.70;;
57822;SDS011;43650;48.064;20.624;2022-12-24T05:04:50;17.90;;;8.95;;
57822;SDS011;43650;48.064;20.624;2022-12-24T05:05:51;21.97;;;9.10;;
57822;SDS011;43650;48.064;20.624;2022-12-24T05:06:51;16.97;;;8.63;;
57822;SDS011;43650;48.064;20.624;2022-12-24T05:07:51;17.43;;;8.67;;
57822;SDS011;43650;48.064;20.624;2022-12-24T05:08:53;18.92;;;9.07;;
57822;SDS011;43650;48.064;20.624;2022-12-24T05:09:54;18.05;;;8.88;;
57822;SDS011;43650;48.064;20.624;2022-12-24T05:10:56;20.47;;;8.90;;
57822;SDS011;43650;48.064;20.624;2022-12-24T05:11:57;22.27;;;9.45;;
57822;SDS011;43650;48.064;20.624;2022-12-24T05:12:57;16.67;;;9.03;;
57822;SDS011;43650;48.064;20.624;2022-12-24T05:13:58;15.87;;;7.57;;
57822;SDS011;43650;48.064;20.624;2022-12-24T05:14:58;15.47;;;8.50;;
57822;SDS011;43650;48.064;20.624;2022-12-24T05:15:58;19.67;;;9.17;;
57822;SDS011;43650;48.064;20.624;2022-12-24T05:16:59;17.77;;;9.43;;
57822;SDS011;43650;48.064;20.624;2022-12-24T05:17:59;19.40;;;9.10;;
57822;SDS011;43650;48.064;20.624;2022-12-24T05:19:00;22.03;;;10.40;;
57822;SDS011;43650;48.064;20.624;2022-12-24T05:20:00;15.77;;;9.20;;
57822;SDS011;43650;48.064;20.624;2022-12-24T05:21:01;18.10;;;9.33;;
57822;SDS011;43650;48.064;20.624;2022-12-24T05:22:01;20.33;;;9.67;;
57822;SDS011;43650;48.064;20.624;2022-12-24T05:23:21;15.75;;;7.72;;
57822;SDS011;43650;48.064;20.624;2022-12-24T05:24:41;20.70;;;9.48;;
57822;SDS011;43650;48.064;20.624;2022-12-24T05:26:00;23.58;;;11.38;;
57822;SDS011;43650;48.064;20.624;2022-12-24T05:27:19;18.33;;;9.93;;
57822;SDS011;43650;48.064;20.624;2022-12-24T05:28:20;18.90;;;8.70;;
57822;SDS011;43650;48.064;20.624;2022-12-24T05:29:21;30.10;;;11.53;;
57822;SDS011;43650;48.064;20.624;2022-12-24T05:30:22;27.13;;;10.95;;
57822;SDS011;43650;48.064;20.624;2022-12-24T05:31:23;19.57;;;10.13;;
57822;SDS011;43650;48.064;20.624;2022-12-24T05:32:24;20.08;;;9.57;;
57822;SDS011;43650;48.064;20.624;2022-12-24T05:33:24;19.70;;;9.07;;
57822;SDS011;43650;48.064;20.624;2022-12-24T05:34:25;17.47;;;7.83;;
57822;SDS011;43650;48.064;20.624;2022-12-24T05:35:25;16.10;;;7.90;;
57822;SDS011;43650;48.064;20.624;2022-12-24T05:36:25;23.60;;;10.23;;
57822;SDS011;43650;48.064;20.624;2022-12-24T05:37:26;17.10;;;7.67;;
57822;SDS011;43650;48.064;20.624;2022-12-24T05:38:26;19.07;;;9.53;;
57822;SDS011;43650;48.064;20.624;2022-12-24T05:39:27;32.83;;;16.00;;
57822;SDS011;43650;48.064;20.624;2022-12-24T05:40:27;16.77;;;9.43;;
57822;SDS011;43650;48.064;20.624;2022-12-24T05:41:27;15.30;;;8.50;;
57822;SDS011;43650;48.064;20.624;2022-12-24T05:42:28;18.40;;;10.07;;
57822;SDS011;43650;48.064;20.624;2022-12-24T05:43:28;16.30;;;9.53;;
57822;SDS011;43650;48.064;20.624;2022-12-24T05:44:29;19.57;;;9.23;;
57822;SDS011;43650;48.064;20.624;2022-12-24T05:45:29;17.93;;;8.43;;
57822;SDS011;43650;48.064;20.624;2022-12-24T05:46:30;15.00;;;8.20;;
57822;SDS011;43650;48.064;20.624;2022-12-24T05:47:30;14.60;;;7.83;;
57822;SDS011;43650;48.064;20.624;2022-12-24T05:48:30;14.43;;;7.27;;
57822;SDS011;43650;48.064;20.624;2022-12-24T05:49:31;13.67;;;7.77;;
57822;SDS011;43650;48.064;20.624;2022-12-24T05:50:31;10.07;;;5.83;;
57822;SDS011;43650;48.064;20.624;2022-12-24T05:51:32;14.03;;;7.00;;
57822;SDS011;43650;48.064;20.624;2022-12-24T05:52:32;14.60;;;7.63;;
57822;SDS011;43650;48.064;20.624;2022-12-24T05:53:33;17.07;;;7.90;;
57822;SDS011;43650;48.064;20.624;2022-12-24T05:54:33;13.62;;;6.93;;
57822;SDS011;43650;48.064;20.624;2022-12-24T05:55:34;13.90;;;8.47;;
57822;SDS011;43650;48.064;20.624;2022-12-24T05:56:34;14.60;;;7.17;;
57822;SDS011;43650;48.064;20.624;2022-12-24T05:57:35;16.67;;;7.20;;
57822;SDS011;43650;48.064;20.624;2022-12-24T05:58:35;12.50;;;7.43;;
57822;SDS011;43650;48.064;20.624;2022-12-24T05:59:36;9.65;;;5.50;;
57822;SDS011;43650;48.064;20.624;2022-12-24T06:00:36;11.43;;;5.87;;
57822;SDS011;43650;48.064;20.624;2022-12-24T06:01:37;11.63;;;6.07;;
57822;SDS011;43650;48.064;20.624;2022-12-24T06:02:37;11.53;;;6.63;;
57822;SDS011;43650;48.064;20.624;2022-12-24T06:03:37;10.87;;;5.97;;
57822;SDS011;43650;48.064;20.624;2022-12-24T06:04:38;19.23;;;8.73;;
57822;SDS011;43650;48.064;20.624;2022-12-24T06:05:38;17.17;;;8.10;;
57822;SDS011;43650;48.064;20.624;2022-12-24T06:07:40;14.82;;;7.25;;
57822;SDS011;43650;48.064;20.624;2022-12-24T06:08:41;10.50;;;6.23;;
57822;SDS011;43650;48.064;20.624;2022-12-24T06:09:41;15.93;;;6.87;;
57822;SDS011;43650;48.064;20.624;2022-12-24T06:10:42;12.00;;;6.50;;
57822;SDS011;43650;48.064;20.624;2022-12-24T06:11:42;13.70;;;6.87;;
57822;SDS011;43650;48.064;20.624;2022-12-24T06:12:42;12.63;;;7.17;;
57822;SDS011;43650;48.064;20.624;2022-12-24T06:13:43;12.80;;;6.47;;
57822;SDS011;43650;48.064;20.624;2022-12-24T06:14:43;12.27;;;6.43;;
57822;SDS011;43650;48.064;20.624;2022-12-24T06:15:44;12.93;;;6.17;;
57822;SDS011;43650;48.064;20.624;2022-12-24T06:16:44;12.53;;;5.80;;
57822;SDS011;43650;48.064;20.624;2022-12-24T06:17:45;11.73;;;6.00;;
57822;SDS011;43650;48.064;20.624;2022-12-24T06:18:45;9.87;;;5.63;;
57822;SDS011;43650;48.064;20.624;2022-12-24T06:19:46;12.48;;;7.45;;
57822;SDS011;43650;48.064;20.624;2022-12-24T06:20:49;13.13;;;7.17;;
57822;SDS011;43650;48.064;20.624;2022-12-24T06:21:50;10.55;;;6.32;;
57822;SDS011;43650;48.064;20.624;2022-12-24T06:22:51;11.13;;;6.30;;
57822;SDS011;43650;48.064;20.624;2022-12-24T06:23:51;16.40;;;8.27;;
57822;SDS011;43650;48.064;20.624;2022-12-24T06:24:52;12.87;;;7.03;;